Vasingtonia, DC (20001)

10:23 PM EDT die 02o September, anno 2015 (GMT -0400)
Eckington Pl, NE | | Change Station
CLOSE
Current Station
Personal Weather Stations
Location: Washington, DC
Elevation: 90 ft
Nearby Weather Stations

Elev 90 ft 38.91 °N, 77.01 °W | Updated 4 minutes ago

Serena
Serena
82.4 °F
Feels Like 87 °F
N
5.0
Ventus Variabilis Ventus from Inter Austrum et Zephyrum
Gusts 9.0 mph

Hodie
High -- | Low -- °F
--% Chance of Precip.
Yesterday
High -- | Low -- °F
Precip. -- in
6:37 AM 7:37 PM
Waning Gibbous, 75% visible
Pressio 29.94 in
Visibilitas 10.0 milia passuum
Clouds Few 25000 ft
Index Caloris 87 °F
Frigus in quo Ros apparet 70 °F
Umor 67%
Rainfall Not available.
Snow Depth Not available.
UV 0 out of 12
Pollen 10.30 out of 12
Air Quality Not available.
Flu Activity Not available.
METAR KDCA 030152Z 19005KT 10SM FEW250 26/21 A2994 RMK AO2 SLP138 T02610211
Pressio 29.94 in
Visibilitas 10.0 milia passuum
Clouds Few 25000 ft
Index Caloris 87 °F
Frigus in quo Ros apparet 70 °F
Umor 67%
Rainfall Not available.
Snow Depth Not available.
UV 0 out of 12
Pollen 10.30 out of 12
Air Quality Not available.
Flu Activity Not available.
METAR KDCA 030152Z 19005KT 10SM FEW250 26/21 A2994 RMK AO2 SLP138 T02610211

10-Day Weather Forecast

×

Almanac

Astronomy

Sep. 02, 2015 Rise Set
Actual Time
Civil Twilight
Nautical Twilight
Astronomical Twilight
Moon
Length Of Visible Light
Length of Day
Tomorrow will be .
, % of the Moon is Illuminated

Today's Extremes

State Highs State Lows

Community

WunderPhotos

Upload Photos

1,851,877 photos uploaded!

WunderBlogs® & News

Nearby

Air Quality

  Air Quality AQ Index Pollutant
Not available.

Snow Depth

Station Depth Elevation

Earthquake Activity

City Distance Mag. Time & Date
Minimum magnitude displayed is 2.5.

Coastal Water Temperatures

Locus Calor

Stations

Nearby Weather Stations

Station Location Temp Frigus Venti Frigus in quo Ros apparet Umor Ventus Precip. Elev Renovata Type